LICA/SUF METAR and TAF weather

Enter ICAO airport designator
Station Type Date Time Source
LICA METAR 2020/01/23 05:50 UTC NOAA

LICA 230550Z 08005KT 9999 SCT030 08/07 Q1029


Station Type Date Time Source
LICA Decoded METAR 2020/01/23 05:50 UTC NOAA

Lamezia Terme, Italy (LICA) 38-54N 016-15E
Jan 23, 2020 - 12:50 AM EST / 2020.01.23 0550 UTC
Wind: from the E (080 degrees) at 6 MPH (5 KT):0
Visibility: greater than 7 mile(s):0
Sky conditions: partly cloudy
Temperature: 46 F (8 C)
Dew Point: 44 F (7 C)
Relative Humidity: 93%
Pressure (altimeter): 30.39 in. Hg (1029 hPa)
ob: LICA 230550Z 08005KT 9999 SCT030 08/07 Q1029
cycle: 6

Station Type Date Time Source
LICA TAF 2020/01/23 06:22 UTC NOAA

TAF LICA 230500Z 2306/2406 VRB05KT 9999 SCT020
BECMG 2309/2311 26010KT
BECMG 2319/2321 07008KT

Example: see airport list